createdAt,value
2023-02-15T00:04:13.262Z,99952.28
2023-02-15T00:09:34.985Z,99942.00
2023-02-15T00:14:56.696Z,99928.22
2023-02-15T00:20:19.387Z,99933.31
2023-02-15T00:25:41.111Z,99929.91
2023-02-15T00:31:08.385Z,99930.84
2023-02-15T00:36:30.284Z,99930.84
2023-02-15T00:41:52.048Z,99924.84
2023-02-15T00:47:13.779Z,99923.09
2023-02-15T00:52:35.616Z,99936.03
2023-02-15T00:57:57.357Z,99933.53
2023-02-15T01:03:20.685Z,99930.94
2023-02-15T01:08:42.576Z,99916.28
2023-02-15T01:14:05.014Z,99924.03
2023-02-15T01:19:26.721Z,99918.94
2023-02-15T01:24:51.019Z,99918.06
2023-02-15T01:30:14.090Z,99928.41
2023-02-15T01:35:37.531Z,99921.50
2023-02-15T01:41:19.269Z,99917.25
2023-02-15T01:46:51.036Z,99917.28
2023-02-15T01:52:16.913Z,99917.31
2023-02-15T01:57:39.786Z,99903.50
2023-02-15T02:03:02.505Z,99904.38
2023-02-15T02:08:25.132Z,99901.84
2023-02-15T02:13:47.886Z,99901.00
2023-02-15T02:19:21.888Z,99898.44
2023-02-15T02:25:20.643Z,99900.16
2023-02-15T02:31:15.886Z,99899.28
2023-02-15T02:36:49.265Z,99886.38
2023-02-15T02:42:37.195Z,99887.22
2023-02-15T02:48:09.041Z,99892.47
2023-02-15T02:53:33.821Z,99896.72
2023-02-15T02:59:03.059Z,99892.47
2023-02-15T03:04:32.197Z,99885.56
2023-02-15T03:09:55.528Z,99883.00
2023-02-15T03:15:21.257Z,99870.94
2023-02-15T03:20:44.017Z,99877.00
2023-02-15T03:26:08.834Z,99879.56
2023-02-15T03:31:35.344Z,99875.31
2023-02-15T03:37:08.233Z,99875.31
2023-02-15T03:42:34.851Z,99887.31
2023-02-15T03:48:00.474Z,99885.63
2023-02-15T03:53:24.618Z,99884.72
2023-02-15T03:59:04.892Z,99884.75
2023-02-15T04:04:37.241Z,99882.19
2023-02-15T04:10:17.385Z,99889.03
2023-02-15T04:15:57.958Z,99881.31
2023-02-15T04:21:39.550Z,99888.16
2023-02-15T04:27:01.772Z,99880.44
2023-02-15T04:32:23.469Z,99875.28
2023-02-15T04:37:45.435Z,99876.16
2023-02-15T04:43:07.132Z,99872.72
2023-02-15T04:48:28.833Z,99867.56
2023-02-15T04:53:50.665Z,99846.97
2023-02-15T04:59:12.758Z,99840.09
2023-02-15T05:04:34.577Z,99843.53
2023-02-15T05:09:56.376Z,99854.69
2023-02-15T05:15:18.199Z,99862.44
2023-02-15T05:20:39.937Z,99863.28
2023-02-15T05:26:20.124Z,99868.44
2023-02-15T05:31:42.172Z,99866.66
2023-02-15T05:37:04.011Z,99867.56
2023-02-15T05:42:25.837Z,99866.66
2023-02-15T05:47:47.573Z,99873.56
2023-02-15T05:53:09.296Z,99866.69
2023-02-15T05:58:33.935Z,99862.41
2023-02-15T06:03:56.757Z,99865.84
2023-02-15T06:09:21.123Z,99870.97
2023-02-15T06:14:43.217Z,99876.78
2023-02-15T06:20:05.674Z,99876.03
2023-02-15T06:25:27.398Z,99884.66
2023-02-15T06:30:49.273Z,99883.66
2023-02-15T06:36:11.134Z,99884.59
2023-02-15T06:41:33.128Z,99889.81
2023-02-15T06:46:55.037Z,99899.13
2023-02-15T06:52:16.826Z,99889.66
2023-02-15T06:57:38.612Z,99896.63
2023-02-15T07:03:00.389Z,99899.22
2023-02-15T07:08:22.196Z,99900.00
2023-02-15T07:13:44.005Z,99906.06
2023-02-15T07:19:05.890Z,99908.66
2023-02-15T07:24:27.641Z,99918.06
2023-02-15T07:29:49.381Z,99917.25
2023-02-15T07:35:11.147Z,99918.13
2023-02-15T07:40:33.882Z,99923.25
2023-02-15T07:45:59.707Z,99904.31
2023-02-15T07:51:21.577Z,99898.31
2023-02-15T07:56:43.292Z,99889.72
2023-02-15T08:02:10.332Z,99891.53
2023-02-15T08:07:32.027Z,99898.38
2023-02-15T08:12:53.830Z,99903.50
2023-02-15T08:18:15.513Z,99911.28
2023-02-15T08:23:37.238Z,99909.56
2023-02-15T08:28:59.974Z,99905.25
2023-02-15T08:34:22.216Z,99901.88
2023-02-15T08:39:44.430Z,99901.00
2023-02-15T08:45:06.538Z,99900.19
2023-02-15T08:50:28.364Z,99910.50
2023-02-15T08:55:59.909Z,99901.88
2023-02-15T09:01:24.764Z,99889.88
2023-02-15T09:06:49.254Z,99893.34
2023-02-15T09:12:11.158Z,99883.00
2023-02-15T09:17:32.915Z,99883.00
2023-02-15T09:22:57.612Z,99881.31
2023-02-15T09:28:20.279Z,99877.88
2023-02-15T09:33:43.876Z,99870.13
2023-02-15T09:39:11.849Z,99877.88
2023-02-15T09:44:58.073Z,99865.00
2023-02-15T09:50:44.417Z,99852.13
2023-02-15T09:56:21.007Z,99843.47
2023-02-15T10:01:57.454Z,99847.78
2023-02-15T10:07:35.577Z,99843.47
2023-02-15T10:13:32.174Z,99834.81
2023-02-15T10:19:34.340Z,99834.75
2023-02-15T10:25:32.309Z,99827.84
2023-02-15T10:31:40.456Z,99826.13
2023-02-15T10:37:33.184Z,99819.19
2023-02-15T10:42:54.906Z,99817.28
2023-02-15T10:48:42.785Z,99804.38
2023-02-15T10:54:22.991Z,99797.34
2023-02-15T11:00:05.623Z,99787.72
2023-02-15T11:05:42.411Z,99785.75
2023-02-15T11:11:13.111Z,99780.38
2023-02-15T11:16:45.256Z,99773.16
2023-02-15T11:22:07.698Z,99772.03
2023-02-15T11:27:36.111Z,99768.38
2023-02-15T11:33:02.892Z,99764.38
2023-02-15T11:38:29.805Z,99761.31
2023-02-15T11:44:08.577Z,99757.63
2023-02-15T11:49:35.570Z,99755.75
2023-02-15T11:54:57.361Z,99751.91
2023-02-15T12:00:37.056Z,99753.22
2023-02-15T12:06:03.041Z,99757.25
2023-02-15T12:11:36.397Z,99747.34
2023-02-15T12:16:58.223Z,99743.31
2023-02-15T12:22:24.770Z,99726.38
2023-02-15T12:27:47.890Z,99720.50
2023-02-15T12:33:23.761Z,99714.44
2023-02-15T12:39:14.318Z,99717.38
2023-02-15T12:44:38.014Z,99712.53
2023-02-15T12:50:23.267Z,99708.31
2023-02-15T12:55:53.656Z,99695.56
2023-02-15T13:01:18.558Z,99678.56
2023-02-15T13:06:49.712Z,99681.84
2023-02-15T13:12:22.907Z,99672.59
2023-02-15T13:17:44.921Z,99646.47
2023-02-15T13:23:19.425Z,99656.69
2023-02-15T13:28:48.473Z,99649.03
2023-02-15T13:34:18.003Z,99639.56
2023-02-15T13:39:48.175Z,99639.22
2023-02-15T13:45:28.894Z,99637.97
2023-02-15T13:51:02.186Z,99630.91
2023-02-15T13:56:45.963Z,99627.25
2023-02-15T14:02:29.540Z,99617.94
2023-02-15T14:08:11.170Z,99615.44
2023-02-15T14:13:49.009Z,99613.75
2023-02-15T14:19:29.564Z,99604.72
2023-02-15T14:25:27.218Z,99621.25
2023-02-15T14:30:51.663Z,99610.44
2023-02-15T14:36:20.492Z,99609.34
2023-02-15T14:41:58.454Z,99609.94
2023-02-15T14:47:26.427Z,99603.59
2023-02-15T14:53:16.729Z,99600.66
2023-02-15T14:58:39.128Z,99596.09
2023-02-15T15:04:09.695Z,99609.81
2023-02-15T15:09:34.897Z,99610.63
2023-02-15T15:14:56.640Z,99608.56
2023-02-15T15:20:27.993Z,99613.19
2023-02-15T15:25:56.525Z,99610.38
2023-02-15T15:31:31.435Z,99600.00
2023-02-15T15:37:18.131Z,99598.53
2023-02-15T15:43:09.056Z,99604.59
2023-02-15T15:48:41.354Z,99596.84
2023-02-15T15:54:04.836Z,99606.69
2023-02-15T15:59:32.738Z,99607.16
2023-02-15T16:04:54.847Z,99612.50
2023-02-15T16:10:24.603Z,99609.22
2023-02-15T16:15:53.815Z,99600.88
2023-02-15T16:21:22.053Z,99603.22
2023-02-15T16:26:54.215Z,99611.44
2023-02-15T16:32:21.301Z,99615.34
2023-02-15T16:37:43.315Z,99619.03
2023-02-15T16:43:11.697Z,99624.41
2023-02-15T16:48:40.105Z,99627.94
2023-02-15T16:54:08.190Z,99628.13
2023-02-15T16:59:51.641Z,99634.38
2023-02-15T17:05:14.578Z,99639.03
2023-02-15T17:10:42.538Z,99639.69
2023-02-15T17:16:04.650Z,99651.88
2023-02-15T17:21:33.234Z,99651.31
2023-02-15T17:27:01.445Z,99662.31
2023-02-15T17:32:27.987Z,99661.03
2023-02-15T17:37:50.810Z,99669.88
2023-02-15T17:43:12.590Z,99664.88
2023-02-15T17:48:36.469Z,99670.13
2023-02-15T17:54:17.086Z,99663.34
2023-02-15T17:59:57.483Z,99665.25
2023-02-15T18:05:38.130Z,99663.78
2023-02-15T18:11:19.386Z,99674.31
2023-02-15T18:16:45.640Z,99671.63
2023-02-15T18:22:19.291Z,99666.75
2023-02-15T18:27:41.022Z,99675.53
2023-02-15T18:33:02.958Z,99673.88
2023-02-15T18:38:24.679Z,99677.56
2023-02-15T18:43:48.810Z,99680.25
2023-02-15T18:49:10.559Z,99682.19
2023-02-15T18:54:32.334Z,99674.47
2023-02-15T18:59:54.078Z,99664.28
2023-02-15T19:05:17.904Z,99666.34
2023-02-15T19:10:39.729Z,99657.66
2023-02-15T19:16:01.928Z,99655.41
2023-02-15T19:21:24.520Z,99659.03
2023-02-15T19:26:48.028Z,99645.34
2023-02-15T19:32:11.782Z,99650.41
2023-02-15T19:37:43.635Z,99648.38
2023-02-15T19:43:15.260Z,99651.78
2023-02-15T19:48:37.038Z,99646.91
2023-02-15T19:53:59.748Z,99645.16
2023-02-15T19:59:35.235Z,99648.00
2023-02-15T20:04:57.043Z,99634.31
2023-02-15T20:10:31.827Z,99633.53
2023-02-15T20:15:53.639Z,99631.75
2023-02-15T20:21:16.368Z,99639.63
2023-02-15T20:26:38.522Z,99645.81
2023-02-15T20:32:01.424Z,99640.75
2023-02-15T20:37:28.823Z,99636.63
2023-02-15T20:42:50.733Z,99626.31
2023-02-15T20:48:12.508Z,99623.94
2023-02-15T20:53:34.231Z,99631.69
2023-02-15T20:58:55.950Z,99621.63
2023-02-15T21:04:25.516Z,99624.69
2023-02-15T21:09:47.461Z,99619.59
2023-02-15T21:15:41.520Z,99621.25
2023-02-15T21:21:06.208Z,99622.19
2023-02-15T21:26:28.149Z,99620.38
2023-02-15T21:31:50.302Z,99624.72
2023-02-15T21:37:34.868Z,99616.56
2023-02-15T21:43:15.896Z,99613.31
2023-02-15T21:48:37.635Z,99612.56
2023-02-15T21:53:59.678Z,99615.19
2023-02-15T21:59:21.462Z,99614.31
2023-02-15T22:04:43.172Z,99606.94
2023-02-15T22:10:05.459Z,99613.38
2023-02-15T22:15:33.712Z,99620.16
2023-02-15T22:20:56.345Z,99623.66
2023-02-15T22:26:22.982Z,99630.91
2023-02-15T22:31:45.063Z,99636.78
2023-02-15T22:37:08.470Z,99621.22
2023-02-15T22:42:30.371Z,99621.38
2023-02-15T22:47:54.471Z,99617.81
2023-02-15T22:53:16.329Z,99625.66
2023-02-15T22:58:38.111Z,99625.72
2023-02-15T23:04:03.068Z,99617.91
2023-02-15T23:09:25.326Z,99638.66
2023-02-15T23:14:47.037Z,99626.84
2023-02-15T23:20:14.398Z,99635.38
2023-02-15T23:25:36.115Z,99636.22
2023-02-15T23:30:59.333Z,99627.88
2023-02-15T23:36:39.109Z,99637.41
2023-02-15T23:42:03.610Z,99648.41
2023-02-15T23:47:50.054Z,99642.31
2023-02-15T23:53:11.780Z,99648.44
2023-02-15T23:58:37.284Z,99642.50
